VABB/BOM METAR and TAF weather

Enter ICAO airport designator
Station Type Date Time Source
VABB METAR 2021/07/28 04:00 UTC NOAA

VABB 280400Z 23009G19KT 2500 HZ SCT018 FEW025TCU BKN090 29/27 Q1005 TEMPO 1500 SHRA


Station Type Date Time Source
VABB Decoded METAR 2021/07/28 04:00 UTC NOAA

Bombay / Santacruz, India (VABB) 19-07N 072-51E 14M
Jul 28, 2021 - 12:00 AM EDT / 2021.07.28 0400 UTC
Wind: from the SW (230 degrees) at 10 MPH (9 KT) gusting to 22 MPH (19 KT):0
Visibility: 1 mile(s):0
Sky conditions: mostly cloudy
Weather: haze; Towering cumulus clouds observed
Temperature: 84 F (29 C)
Dew Point: 80 F (27 C)
Relative Humidity: 88%
Pressure (altimeter): 29.68 in. Hg (1005 hPa)
ob: VABB 280400Z 23009G19KT 2500 HZ SCT018 FEW025TCU BKN090 29/27 Q1005 TEMPO 1500 SHRA
cycle: 4

Station Type Date Time Source
VABB TAF 2021/07/28 00:03 UTC NOAA

TAF TAF VABB 272300Z 2800/2906 24012KT 2500 -RA HZ SCT018 FEW025TCU BKN090
TEMPO 2800/2805 24010G20KT 1500 -TSRA SHRA SCT015 FEW030CB OVC080
BECMG 2805/2807 24010G20KT
BECMG 2809/2811 3000 HZ
TEMPO 2812/2818 1500 -TSRA SHRA FEW012 SCT018 FEW030CB OVC080
BECMG 2813/2815 23012KT 2500 -RA HZ
BECMG 2904/2906 23008G18KT

Example: see airport list